<?xml version="1.0" encoding="UTF-8" standalone="no" ?>
<gpx xmlns="http://www.topografix.com/GPX/1/1" xmlns:xsi="http://www.w3.org/2001/XMLSchema-instance" xsi:schemaLocation="http://www.topografix.com/GPX/1/1 http://www.topografix.com/GPX/1/1/gpx.xsd" version="1.1" creator="VisuGPX - https://www.visugpx.com">
  <metadata>
    <name>Dondas - Sabré - 20 août 2017</name>
    <desc><![CDATA[Dondas - Sabré - 20 août 2017 -----------]]></desc>
  </metadata>
  <trk>
    <name><![CDATA[2017-08-20T07:56:13Z]]></name>
    <trkseg>
      <trkpt lat="44.21998" lon="0.84557">
        <ele>172.29</ele>
        <time>2017-08-20T07:56:13Z</time>
      </trkpt>
      <trkpt lat="44.21997" lon="0.84556">
        <ele>171.65</ele>
        <time>2017-08-20T07:56:19Z</time>
      </trkpt>
      <trkpt lat="44.21992" lon="0.84554">
        <ele>171.801</ele>
        <time>2017-08-20T07:56:24Z</time>
      </trkpt>
      <trkpt lat="44.21977" lon="0.84549">
        <ele>170.91</ele>
        <time>2017-08-20T07:56:31Z</time>
      </trkpt>
      <trkpt lat="44.21959" lon="0.84558">
        <ele>170.43</ele>
        <time>2017-08-20T07:56:37Z</time>
      </trkpt>
      <trkpt lat="44.21939" lon="0.84576">
        <ele>170.39</ele>
        <time>2017-08-20T07:56:45Z</time>
      </trkpt>
      <trkpt lat="44.21922" lon="0.84595">
        <ele>170.971</ele>
        <time>2017-08-20T07:56:54Z</time>
      </trkpt>
      <trkpt lat="44.21905" lon="0.84616">
        <ele>171.15</ele>
        <time>2017-08-20T07:57:02Z</time>
      </trkpt>
      <trkpt lat="44.21879" lon="0.84651">
        <ele>170.9</ele>
        <time>2017-08-20T07:57:15Z</time>
      </trkpt>
      <trkpt lat="44.21857" lon="0.84679">
        <ele>170.39</ele>
        <time>2017-08-20T07:57:25Z</time>
      </trkpt>
      <trkpt lat="44.21848" lon="0.84689">
        <ele>170.441</ele>
        <time>2017-08-20T07:57:30Z</time>
      </trkpt>
      <trkpt lat="44.21845" lon="0.84692">
        <ele>171.011</ele>
        <time>2017-08-20T07:57:32Z</time>
      </trkpt>
      <trkpt lat="44.21835" lon="0.84685">
        <ele>172.04</ele>
        <time>2017-08-20T07:57:38Z</time>
      </trkpt>
      <trkpt lat="44.21812" lon="0.84648">
        <ele>174.41</ele>
        <time>2017-08-20T07:57:52Z</time>
      </trkpt>
      <trkpt lat="44.21795" lon="0.84625">
        <ele>175.54</ele>
        <time>2017-08-20T07:58:03Z</time>
      </trkpt>
      <trkpt lat="44.21778" lon="0.84605">
        <ele>176.62</ele>
        <time>2017-08-20T07:58:13Z</time>
      </trkpt>
      <trkpt lat="44.2176" lon="0.84582">
        <ele>178.2</ele>
        <time>2017-08-20T07:58:25Z</time>
      </trkpt>
      <trkpt lat="44.21745" lon="0.84564">
        <ele>179.38</ele>
        <time>2017-08-20T07:58:34Z</time>
      </trkpt>
      <trkpt lat="44.21731" lon="0.84547">
        <ele>180.649</ele>
        <time>2017-08-20T07:58:43Z</time>
      </trkpt>
      <trkpt lat="44.21719" lon="0.84533">
        <ele>182.019</ele>
        <time>2017-08-20T07:58:51Z</time>
      </trkpt>
      <trkpt lat="44.21706" lon="0.84518">
        <ele>183.5</ele>
        <time>2017-08-20T07:59:00Z</time>
      </trkpt>
      <trkpt lat="44.21694" lon="0.845">
        <ele>185.24</ele>
        <time>2017-08-20T07:59:09Z</time>
      </trkpt>
      <trkpt lat="44.21682" lon="0.84478">
        <ele>186.889</ele>
        <time>2017-08-20T07:59:20Z</time>
      </trkpt>
      <trkpt lat="44.21677" lon="0.84465">
        <ele>188.37</ele>
        <time>2017-08-20T07:59:26Z</time>
      </trkpt>
      <trkpt lat="44.21669" lon="0.84449">
        <ele>189.712</ele>
        <time>2017-08-20T07:59:34Z</time>
      </trkpt>
      <trkpt lat="44.21662" lon="0.8445">
        <ele>190.479</ele>
        <time>2017-08-20T07:59:39Z</time>
      </trkpt>
      <trkpt lat="44.21655" lon="0.84485">
        <ele>196.52</ele>
        <time>2017-08-20T07:59:53Z</time>
      </trkpt>
      <trkpt lat="44.21652" lon="0.84503">
        <ele>198.719</ele>
        <time>2017-08-20T08:00:00Z</time>
      </trkpt>
      <trkpt lat="44.21649" lon="0.84524">
        <ele>199.849</ele>
        <time>2017-08-20T08:00:09Z</time>
      </trkpt>
      <trkpt lat="44.21648" lon="0.84548">
        <ele>200.409</ele>
        <time>2017-08-20T08:00:18Z</time>
      </trkpt>
      <trkpt lat="44.21647" lon="0.84573">
        <ele>202.3</ele>
        <time>2017-08-20T08:00:26Z</time>
      </trkpt>
      <trkpt lat="44.21644" lon="0.84594">
        <ele>203.45</ele>
        <time>2017-08-20T08:00:33Z</time>
      </trkpt>
      <trkpt lat="44.21639" lon="0.84624">
        <ele>202.819</ele>
        <time>2017-08-20T08:00:43Z</time>
      </trkpt>
      <trkpt lat="44.21635" lon="0.84648">
        <ele>202.939</ele>
        <time>2017-08-20T08:00:52Z</time>
      </trkpt>
      <trkpt lat="44.21632" lon="0.84665">
        <ele>202.638</ele>
        <time>2017-08-20T08:00:57Z</time>
      </trkpt>
      <trkpt lat="44.21627" lon="0.84691">
        <ele>204.269</ele>
        <time>2017-08-20T08:01:04Z</time>
      </trkpt>
      <trkpt lat="44.21623" lon="0.84719">
        <ele>205.86</ele>
        <time>2017-08-20T08:01:11Z</time>
      </trkpt>
      <trkpt lat="44.21617" lon="0.84744">
        <ele>205.879</ele>
        <time>2017-08-20T08:01:17Z</time>
      </trkpt>
      <trkpt lat="44.21614" lon="0.84755">
        <ele>205.898</ele>
        <time>2017-08-20T08:01:19Z</time>
      </trkpt>
      <trkpt lat="44.21612" lon="0.84766">
        <ele>205.628</ele>
        <time>2017-08-20T08:01:21Z</time>
      </trkpt>
      <trkpt lat="44.21604" lon="0.84791">
        <ele>204.278</ele>
        <time>2017-08-20T08:01:26Z</time>
      </trkpt>
      <trkpt lat="44.21587" lon="0.84833">
        <ele>201.408</ele>
        <time>2017-08-20T08:01:35Z</time>
      </trkpt>
      <trkpt lat="44.21567" lon="0.84865">
        <ele>195.138</ele>
        <time>2017-08-20T08:01:43Z</time>
      </trkpt>
      <trkpt lat="44.21539" lon="0.84902">
        <ele>191.828</ele>
        <time>2017-08-20T08:01:53Z</time>
      </trkpt>
      <trkpt lat="44.21533" lon="0.84909">
        <ele>191.328</ele>
        <time>2017-08-20T08:01:55Z</time>
      </trkpt>
      <trkpt lat="44.21507" lon="0.84947">
        <ele>189.158</ele>
        <time>2017-08-20T08:02:03Z</time>
      </trkpt>
      <trkpt lat="44.21476" lon="0.84999">
        <ele>189.198</ele>
        <time>2017-08-20T08:02:12Z</time>
      </trkpt>
      <trkpt lat="44.2144" lon="0.85053">
        <ele>187.569</ele>
        <time>2017-08-20T08:02:21Z</time>
      </trkpt>
      <trkpt lat="44.21423" lon="0.85079">
        <ele>187.42</ele>
        <time>2017-08-20T08:02:27Z</time>
      </trkpt>
      <trkpt lat="44.21409" lon="0.85102">
        <ele>187.249</ele>
        <time>2017-08-20T08:02:34Z</time>
      </trkpt>
      <trkpt lat="44.21385" lon="0.85132">
        <ele>186.999</ele>
        <time>2017-08-20T08:02:45Z</time>
      </trkpt>
      <trkpt lat="44.21373" lon="0.85146">
        <ele>186.768</ele>
        <time>2017-08-20T08:02:52Z</time>
      </trkpt>
      <trkpt lat="44.21361" lon="0.85163">
        <ele>186.168</ele>
        <time>2017-08-20T08:02:59Z</time>
      </trkpt>
      <trkpt lat="44.21351" lon="0.85179">
        <ele>185.358</ele>
        <time>2017-08-20T08:03:05Z</time>
      </trkpt>
      <trkpt lat="44.21338" lon="0.8521">
        <ele>183.837</ele>
        <time>2017-08-20T08:03:12Z</time>
      </trkpt>
      <trkpt lat="44.2132" lon="0.85249">
        <ele>182.718</ele>
        <time>2017-08-20T08:03:19Z</time>
      </trkpt>
      <trkpt lat="44.21296" lon="0.85285">
        <ele>182.489</ele>
        <time>2017-08-20T08:03:27Z</time>
      </trkpt>
      <trkpt lat="44.21275" lon="0.85315">
        <ele>183.729</ele>
        <time>2017-08-20T08:03:35Z</time>
      </trkpt>
      <trkpt lat="44.21248" lon="0.85346">
        <ele>185.388</ele>
        <time>2017-08-20T08:03:44Z</time>
      </trkpt>
      <trkpt lat="44.2123" lon="0.85362">
        <ele>187.789</ele>
        <time>2017-08-20T08:03:49Z</time>
      </trkpt>
      <trkpt lat="44.21209" lon="0.85379">
        <ele>188.158</ele>
        <time>2017-08-20T08:03:54Z</time>
      </trkpt>
      <trkpt lat="44.2116" lon="0.85415">
        <ele>185.417</ele>
        <time>2017-08-20T08:04:05Z</time>
      </trkpt>
      <trkpt lat="44.21123" lon="0.85441">
        <ele>184.788</ele>
        <time>2017-08-20T08:04:14Z</time>
      </trkpt>
      <trkpt lat="44.21108" lon="0.85448">
        <ele>185.218</ele>
        <time>2017-08-20T08:04:19Z</time>
      </trkpt>
      <trkpt lat="44.21099" lon="0.85449">
        <ele>184.948</ele>
        <time>2017-08-20T08:04:27Z</time>
      </trkpt>
      <trkpt lat="44.21088" lon="0.85449">
        <ele>184.517</ele>
        <time>2017-08-20T08:04:33Z</time>
      </trkpt>
      <trkpt lat="44.2107" lon="0.85448">
        <ele>183.406</ele>
        <time>2017-08-20T08:04:38Z</time>
      </trkpt>
      <trkpt lat="44.21051" lon="0.85443">
        <ele>181.446</ele>
        <time>2017-08-20T08:04:43Z</time>
      </trkpt>
      <trkpt lat="44.21044" lon="0.85441">
        <ele>180.497</ele>
        <time>2017-08-20T08:04:48Z</time>
      </trkpt>
      <trkpt lat="44.21032" lon="0.85438">
        <ele>179.496</ele>
        <time>2017-08-20T08:04:54Z</time>
      </trkpt>
      <trkpt lat="44.2102" lon="0.85435">
        <ele>178.676</ele>
        <time>2017-08-20T08:04:57Z</time>
      </trkpt>
      <trkpt lat="44.20983" lon="0.85432">
        <ele>176.095</ele>
        <time>2017-08-20T08:05:04Z</time>
      </trkpt>
      <trkpt lat="44.20946" lon="0.85425">
        <ele>174.437</ele>
        <time>2017-08-20T08:05:10Z</time>
      </trkpt>
      <trkpt lat="44.20899" lon="0.85422">
        <ele>173.187</ele>
        <time>2017-08-20T08:05:18Z</time>
      </trkpt>
      <trkpt lat="44.20859" lon="0.85423">
        <ele>173.577</ele>
        <time>2017-08-20T08:05:26Z</time>
      </trkpt>
      <trkpt lat="44.20825" lon="0.85429">
        <ele>173.277</ele>
        <time>2017-08-20T08:05:35Z</time>
      </trkpt>
      <trkpt lat="44.20794" lon="0.85434">
        <ele>172.405</ele>
        <time>2017-08-20T08:05:43Z</time>
      </trkpt>
      <trkpt lat="44.2076" lon="0.85438">
        <ele>172.316</ele>
        <time>2017-08-20T08:05:51Z</time>
      </trkpt>
      <trkpt lat="44.2073" lon="0.85432">
        <ele>171.314</ele>
        <time>2017-08-20T08:05:58Z</time>
      </trkpt>
      <trkpt lat="44.20705" lon="0.85424">
        <ele>168.994</ele>
        <time>2017-08-20T08:06:03Z</time>
      </trkpt>
      <trkpt lat="44.20697" lon="0.8542">
        <ele>168.476</ele>
        <time>2017-08-20T08:06:07Z</time>
      </trkpt>
      <trkpt lat="44.20691" lon="0.85417">
        <ele>168.246</ele>
        <time>2017-08-20T08:06:14Z</time>
      </trkpt>
      <trkpt lat="44.20685" lon="0.85413">
        <ele>167.566</ele>
        <time>2017-08-20T08:06:25Z</time>
      </trkpt>
      <trkpt lat="44.20681" lon="0.85411">
        <ele>167.566</ele>
        <time>2017-08-20T08:06:32Z</time>
      </trkpt>
      <trkpt lat="44.20681" lon="0.85411">
        <ele>167.896</ele>
        <time>2017-08-20T08:06:43Z</time>
      </trkpt>
      <trkpt lat="44.20675" lon="0.85405">
        <ele>168.054</ele>
        <time>2017-08-20T08:07:44Z</time>
      </trkpt>
      <trkpt lat="44.20672" lon="0.85403">
        <ele>167.654</ele>
        <time>2017-08-20T08:07:45Z</time>
      </trkpt>
      <trkpt lat="44.20652" lon="0.85399">
        <ele>165.102</ele>
        <time>2017-08-20T08:07:49Z</time>
      </trkpt>
      <trkpt lat="44.20604" lon="0.85407">
        <ele>161.943</ele>
        <time>2017-08-20T08:07:55Z</time>
      </trkpt>
      <trkpt lat="44.20573" lon="0.85414">
        <ele>160.444</ele>
        <time>2017-08-20T08:07:59Z</time>
      </trkpt>
      <trkpt lat="44.20567" lon="0.85416">
        <ele>160.235</ele>
        <time>2017-08-20T08:08:01Z</time>
      </trkpt>
      <trkpt lat="44.20568" lon="0.85417">
        <ele>159.365</ele>
        <time>2017-08-20T08:08:06Z</time>
      </trkpt>
      <trkpt lat="44.20568" lon="0.85414">
        <ele>160.855</ele>
        <time>2017-08-20T08:10:41Z</time>
      </trkpt>
      <trkpt lat="44.20569" lon="0.8541">
        <ele>161.045</ele>
        <time>2017-08-20T08:10:46Z</time>
      </trkpt>
      <trkpt lat="44.2057" lon="0.8541">
        <ele>161.095</ele>
        <time>2017-08-20T08:11:10Z</time>
      </trkpt>
      <trkpt lat="44.20571" lon="0.85415">
        <ele>162.055</ele>
        <time>2017-08-20T08:11:15Z</time>
      </trkpt>
      <trkpt lat="44.20567" lon="0.85414">
        <ele>161.515</ele>
        <time>2017-08-20T08:11:21Z</time>
      </trkpt>
      <trkpt lat="44.20561" lon="0.85411">
        <ele>160.915</ele>
        <time>2017-08-20T08:11:31Z</time>
      </trkpt>
      <trkpt lat="44.20543" lon="0.85406">
        <ele>159.092</ele>
        <time>2017-08-20T08:11:36Z</time>
      </trkpt>
      <trkpt lat="44.20514" lon="0.85393">
        <ele>156.303</ele>
        <time>2017-08-20T08:11:41Z</time>
      </trkpt>
      <trkpt lat="44.20465" lon="0.85371">
        <ele>154.585</ele>
        <time>2017-08-20T08:11:49Z</time>
      </trkpt>
      <trkpt lat="44.20435" lon="0.85361">
        <ele>155.216</ele>
        <time>2017-08-20T08:11:55Z</time>
      </trkpt>
      <trkpt lat="44.20417" lon="0.85356">
        <ele>155.054</ele>
        <time>2017-08-20T08:12:00Z</time>
      </trkpt>
      <trkpt lat="44.20412" lon="0.85354">
        <ele>154.395</ele>
        <time>2017-08-20T08:12:05Z</time>
      </trkpt>
      <trkpt lat="44.20404" lon="0.85349">
        <ele>153.834</ele>
        <time>2017-08-20T08:12:14Z</time>
      </trkpt>
      <trkpt lat="44.204" lon="0.85346">
        <ele>153.064</ele>
        <time>2017-08-20T08:12:20Z</time>
      </trkpt>
      <trkpt lat="44.20392" lon="0.85341">
        <ele>151.833</ele>
        <time>2017-08-20T08:12:24Z</time>
      </trkpt>
      <trkpt lat="44.20377" lon="0.85333">
        <ele>149.621</ele>
        <time>2017-08-20T08:12:27Z</time>
      </trkpt>
      <trkpt lat="44.20334" lon="0.85324">
        <ele>145.092</ele>
        <time>2017-08-20T08:12:33Z</time>
      </trkpt>
      <trkpt lat="44.20294" lon="0.8533">
        <ele>142.713</ele>
        <time>2017-08-20T08:12:38Z</time>
      </trkpt>
      <trkpt lat="44.20286" lon="0.85332">
        <ele>142.423</ele>
        <time>2017-08-20T08:12:39Z</time>
      </trkpt>
      <trkpt lat="44.20257" lon="0.85328">
        <ele>141.584</ele>
        <time>2017-08-20T08:12:43Z</time>
      </trkpt>
      <trkpt lat="44.20223" lon="0.85311">
        <ele>140.653</ele>
        <time>2017-08-20T08:12:49Z</time>
      </trkpt>
      <trkpt lat="44.20192" lon="0.85295">
        <ele>139.983</ele>
        <time>2017-08-20T08:12:56Z</time>
      </trkpt>
      <trkpt lat="44.2016" lon="0.85278">
        <ele>138.763</ele>
        <time>2017-08-20T08:13:05Z</time>
      </trkpt>
      <trkpt lat="44.2013" lon="0.85263">
        <ele>137.563</ele>
        <time>2017-08-20T08:13:15Z</time>
      </trkpt>
      <trkpt lat="44.2009" lon="0.85247">
        <ele>136.223</ele>
        <time>2017-08-20T08:13:28Z</time>
      </trkpt>
      <trkpt lat="44.20067" lon="0.85236">
        <ele>135.112</ele>
        <time>2017-08-20T08:13:35Z</time>
      </trkpt>
      <trkpt lat="44.20042" lon="0.85218">
        <ele>133.633</ele>
        <time>2017-08-20T08:13:41Z</time>
      </trkpt>
      <trkpt lat="44.20018" lon="0.85183">
        <ele>131.571</ele>
        <time>2017-08-20T08:13:48Z</time>
      </trkpt>
      <trkpt lat="44.19981" lon="0.85128">
        <ele>129.372</ele>
        <time>2017-08-20T08:13:59Z</time>
      </trkpt>
      <trkpt lat="44.19963" lon="0.851">
        <ele>128.802</ele>
        <time>2017-08-20T08:14:06Z</time>
      </trkpt>
      <trkpt lat="44.1995" lon="0.85078">
        <ele>129.243</ele>
        <time>2017-08-20T08:14:14Z</time>
      </trkpt>
      <trkpt lat="44.19941" lon="0.85063">
        <ele>130.023</ele>
        <time>2017-08-20T08:14:21Z</time>
      </trkpt>
      <trkpt lat="44.1993" lon="0.85046">
        <ele>131.743</ele>
        <time>2017-08-20T08:14:30Z</time>
      </trkpt>
      <trkpt lat="44.19924" lon="0.85035">
        <ele>133.144</ele>
        <time>2017-08-20T08:14:37Z</time>
      </trkpt>
      <trkpt lat="44.19917" lon="0.85023">
        <ele>134.643</ele>
        <time>2017-08-20T08:14:46Z</time>
      </trkpt>
      <trkpt lat="44.19909" lon="0.85014">
        <ele>136.453</ele>
        <time>2017-08-20T08:14:55Z</time>
      </trkpt>
      <trkpt lat="44.19905" lon="0.8501">
        <ele>136.842</ele>
        <time>2017-08-20T08:14:59Z</time>
      </trkpt>
      <trkpt lat="44.19905" lon="0.84998">
        <ele>138.242</ele>
        <time>2017-08-20T08:15:08Z</time>
      </trkpt>
      <trkpt lat="44.19906" lon="0.84982">
        <ele>138.972</ele>
        <time>2017-08-20T08:15:16Z</time>
      </trkpt>
      <trkpt lat="44.19906" lon="0.84965">
        <ele>138.891</ele>
        <time>2017-08-20T08:15:22Z</time>
      </trkpt>
      <trkpt lat="44.19908" lon="0.84938">
        <ele>139.602</ele>
        <time>2017-08-20T08:15:29Z</time>
      </trkpt>
      <trkpt lat="44.19908" lon="0.84897">
        <ele>138.451</ele>
        <time>2017-08-20T08:15:35Z</time>
      </trkpt>
      <trkpt lat="44.19908" lon="0.84858">
        <ele>138.271</ele>
        <time>2017-08-20T08:15:41Z</time>
      </trkpt>
      <trkpt lat="44.1991" lon="0.8484">
        <ele>137.711</ele>
        <time>2017-08-20T08:15:44Z</time>
      </trkpt>
      <trkpt lat="44.19902" lon="0.84805">
        <ele>136.02</ele>
        <time>2017-08-20T08:15:50Z</time>
      </trkpt>
      <trkpt lat="44.19898" lon="0.848">
        <ele>135.369</ele>
        <time>2017-08-20T08:15:51Z</time>
      </trkpt>
      <trkpt lat="44.19893" lon="0.84793">
        <ele>134.308</ele>
        <time>2017-08-20T08:15:53Z</time>
      </trkpt>
      <trkpt lat="44.19886" lon="0.84769">
        <ele>131.328</ele>
        <time>2017-08-20T08:15:57Z</time>
      </trkpt>
      <trkpt lat="44.19887" lon="0.84762">
        <ele>130.547</ele>
        <time>2017-08-20T08:15:58Z</time>
      </trkpt>
      <trkpt lat="44.19891" lon="0.84743">
        <ele>129.167</ele>
        <time>2017-08-20T08:16:00Z</time>
      </trkpt>
      <trkpt lat="44.1989" lon="0.84708">
        <ele>127.258</ele>
        <time>2017-08-20T08:16:04Z</time>
      </trkpt>
      <trkpt lat="44.19876" lon="0.84695">
        <ele>125.107</ele>
        <time>2017-08-20T08:16:07Z</time>
      </trkpt>
      <trkpt lat="44.1987" lon="0.84692">
        <ele>124.156</ele>
        <time>2017-08-20T08:16:08Z</time>
      </trkpt>
      <trkpt lat="44.19824" lon="0.84676">
        <ele>116.453</ele>
        <time>2017-08-20T08:16:13Z</time>
      </trkpt>
      <trkpt lat="44.19776" lon="0.84657">
        <ele>107.628</ele>
        <time>2017-08-20T08:16:17Z</time>
      </trkpt>
      <trkpt lat="44.19734" lon="0.84641">
        <ele>99.65</ele>
        <time>2017-08-20T08:16:21Z</time>
      </trkpt>
      <trkpt lat="44.19696" lon="0.84627">
        <ele>92.814</ele>
        <time>2017-08-20T08:16:25Z</time>
      </trkpt>
      <trkpt lat="44.19677" lon="0.84617">
        <ele>89.636</ele>
        <time>2017-08-20T08:16:28Z</time>
      </trkpt>
      <trkpt lat="44.19662" lon="0.8461">
        <ele>87.158</ele>
        <time>2017-08-20T08:16:32Z</time>
      </trkpt>
      <trkpt lat="44.19661" lon="0.8461">
        <ele>86.981</ele>
        <time>2017-08-20T08:16:36Z</time>
      </trkpt>
      <trkpt lat="44.19661" lon="0.84613">
        <ele>86.489</ele>
        <time>2017-08-20T08:18:34Z</time>
      </trkpt>
      <trkpt lat="44.19657" lon="0.84595">
        <ele>85.829</ele>
        <time>2017-08-20T08:18:38Z</time>
      </trkpt>
      <trkpt lat="44.19656" lon="0.84552">
        <ele>85.379</ele>
        <time>2017-08-20T08:18:44Z</time>
      </trkpt>
      <trkpt lat="44.19656" lon="0.84509">
        <ele>84.569</ele>
        <time>2017-08-20T08:18:48Z</time>
      </trkpt>
      <trkpt lat="44.19658" lon="0.84442">
        <ele>83.628</ele>
        <time>2017-08-20T08:18:53Z</time>
      </trkpt>
      <trkpt lat="44.19658" lon="0.84344">
        <ele>83.099</ele>
        <time>2017-08-20T08:19:00Z</time>
      </trkpt>
      <trkpt lat="44.19659" lon="0.84288">
        <ele>83.339</ele>
        <time>2017-08-20T08:19:05Z</time>
      </trkpt>
      <trkpt lat="44.19659" lon="0.84233">
        <ele>83.389</ele>
        <time>2017-08-20T08:19:11Z</time>
      </trkpt>
      <trkpt lat="44.19659" lon="0.84179">
        <ele>84.04</ele>
        <time>2017-08-20T08:19:18Z</time>
      </trkpt>
      <trkpt lat="44.19659" lon="0.84163">
        <ele>84.04</ele>
        <time>2017-08-20T08:19:22Z</time>
      </trkpt>
      <trkpt lat="44.19662" lon="0.84158">
        <ele>84.229</ele>
        <time>2017-08-20T08:19:28Z</time>
      </trkpt>
      <trkpt lat="44.19663" lon="0.84157">
        <ele>84.36</ele>
        <time>2017-08-20T08:19:29Z</time>
      </trkpt>
      <trkpt lat="44.19662" lon="0.84152">
        <ele>84.289</ele>
        <time>2017-08-20T08:19:35Z</time>
      </trkpt>
      <trkpt lat="44.19662" lon="0.84152">
        <ele>84.179</ele>
        <time>2017-08-20T08:19:36Z</time>
      </trkpt>
      <trkpt lat="44.19661" lon="0.84155">
        <ele>84.19</ele>
        <time>2017-08-20T08:19:41Z</time>
      </trkpt>
      <trkpt lat="44.19661" lon="0.84157">
        <ele>83.409</ele>
        <time>2017-08-20T08:19:55Z</time>
      </trkpt>
      <trkpt lat="44.19655" lon="0.84149">
        <ele>83.579</ele>
        <time>2017-08-20T08:20:00Z</time>
      </trkpt>
      <trkpt lat="44.19652" lon="0.84145">
        <ele>83.779</ele>
        <time>2017-08-20T08:20:02Z</time>
      </trkpt>
      <trkpt lat="44.1965" lon="0.84143">
        <ele>85.079</ele>
        <time>2017-08-20T08:20:08Z</time>
      </trkpt>
      <trkpt lat="44.19648" lon="0.84152">
        <ele>97.758</ele>
        <time>2017-08-20T08:25:57Z</time>
      </trkpt>
      <trkpt lat="44.19648" lon="0.84152">
        <ele>95.798</ele>
        <time>2017-08-20T08:25:59Z</time>
      </trkpt>
      <trkpt lat="44.19649" lon="0.84159">
        <ele>92.008</ele>
        <time>2017-08-20T08:26:05Z</time>
      </trkpt>
      <trkpt lat="44.19654" lon="0.8416">
        <ele>87.149</ele>
        <time>2017-08-20T08:26:12Z</time>
      </trkpt>
      <trkpt lat="44.1966" lon="0.84162">
        <ele>87.52</ele>
        <time>2017-08-20T08:26:19Z</time>
      </trkpt>
      <trkpt lat="44.1967" lon="0.84165">
        <ele>85.96</ele>
        <time>2017-08-20T08:26:26Z</time>
      </trkpt>
      <trkpt lat="44.19677" lon="0.84167">
        <ele>85.559</ele>
        <time>2017-08-20T08:26:33Z</time>
      </trkpt>
      <trkpt lat="44.19687" lon="0.84171">
        <ele>85.499</ele>
        <time>2017-08-20T08:26:41Z</time>
      </trkpt>
      <trkpt lat="44.19699" lon="0.84176">
        <ele>86.589</ele>
        <time>2017-08-20T08:26:50Z</time>
      </trkpt>
      <trkpt lat="44.19715" lon="0.84181">
        <ele>87.3</ele>
        <time>2017-08-20T08:27:01Z</time>
      </trkpt>
      <trkpt lat="44.19724" lon="0.84185">
        <ele>89.36</ele>
        <time>2017-08-20T08:27:09Z</time>
      </trkpt>
      <trkpt lat="44.19733" lon="0.8419">
        <ele>89.18</ele>
        <time>2017-08-20T08:27:17Z</time>
      </trkpt>
      <trkpt lat="44.19737" lon="0.842">
        <ele>88.219</ele>
        <time>2017-08-20T08:27:24Z</time>
      </trkpt>
      <trkpt lat="44.19742" lon="0.8421">
        <ele>88.76</ele>
        <time>2017-08-20T08:27:31Z</time>
      </trkpt>
      <trkpt lat="44.1975" lon="0.8422">
        <ele>90.13</ele>
        <time>2017-08-20T08:27:41Z</time>
      </trkpt>
      <trkpt lat="44.19755" lon="0.84224">
        <ele>90.92</ele>
        <time>2017-08-20T08:27:47Z</time>
      </trkpt>
      <trkpt lat="44.19762" lon="0.84223">
        <ele>91.26</ele>
        <time>2017-08-20T08:27:53Z</time>
      </trkpt>
      <trkpt lat="44.19762" lon="0.84224">
        <ele>90.41</ele>
        <time>2017-08-20T08:28:10Z</time>
      </trkpt>
      <trkpt lat="44.19758" lon="0.84228">
        <ele>89.469</ele>
        <time>2017-08-20T08:28:14Z</time>
      </trkpt>
      <trkpt lat="44.19753" lon="0.84226">
        <ele>89.239</ele>
        <time>2017-08-20T08:28:20Z</time>
      </trkpt>
      <trkpt lat="44.19752" lon="0.84223">
        <ele>89.819</ele>
        <time>2017-08-20T08:29:49Z</time>
      </trkpt>
      <trkpt lat="44.19758" lon="0.8422">
        <ele>89.689</ele>
        <time>2017-08-20T08:29:56Z</time>
      </trkpt>
      <trkpt lat="44.19757" lon="0.84221">
        <ele>90.439</ele>
        <time>2017-08-20T08:30:13Z</time>
      </trkpt>
      <trkpt lat="44.19753" lon="0.84222">
        <ele>90.679</ele>
        <time>2017-08-20T08:30:22Z</time>
      </trkpt>
      <trkpt lat="44.19751" lon="0.84221">
        <ele>90.699</ele>
        <time>2017-08-20T08:30:25Z</time>
      </trkpt>
      <trkpt lat="44.19739" lon="0.84209">
        <ele>91.219</ele>
        <time>2017-08-20T08:30:34Z</time>
      </trkpt>
      <trkpt lat="44.19736" lon="0.84203">
        <ele>91.219</ele>
        <time>2017-08-20T08:30:36Z</time>
      </trkpt>
      <trkpt lat="44.19739" lon="0.84188">
        <ele>91.22</ele>
        <time>2017-08-20T08:30:42Z</time>
      </trkpt>
      <trkpt lat="44.19743" lon="0.8417">
        <ele>91.299</ele>
        <time>2017-08-20T08:30:49Z</time>
      </trkpt>
      <trkpt lat="44.19752" lon="0.84135">
        <ele>90.049</ele>
        <time>2017-08-20T08:31:00Z</time>
      </trkpt>
      <trkpt lat="44.19761" lon="0.84107">
        <ele>89.529</ele>
        <time>2017-08-20T08:31:08Z</time>
      </trkpt>
      <trkpt lat="44.19769" lon="0.84081">
        <ele>89.889</ele>
        <time>2017-08-20T08:31:16Z</time>
      </trkpt>
      <trkpt lat="44.19772" lon="0.84059">
        <ele>92.08</ele>
        <time>2017-08-20T08:31:23Z</time>
      </trkpt>
      <trkpt lat="44.19773" lon="0.8404">
        <ele>94.25</ele>
        <time>2017-08-20T08:31:32Z</time>
      </trkpt>
      <trkpt lat="44.19774" lon="0.84024">
        <ele>94.77</ele>
        <time>2017-08-20T08:31:40Z</time>
      </trkpt>
      <trkpt lat="44.19774" lon="0.84005">
        <ele>96.84</ele>
        <time>2017-08-20T08:31:49Z</time>
      </trkpt>
      <trkpt lat="44.19775" lon="0.83984">
        <ele>99.082</ele>
        <time>2017-08-20T08:31:58Z</time>
      </trkpt>
      <trkpt lat="44.19775" lon="0.83964">
        <ele>102.993</ele>
        <time>2017-08-20T08:32:06Z</time>
      </trkpt>
      <trkpt lat="44.19776" lon="0.83946">
        <ele>101.68</ele>
        <time>2017-08-20T08:32:12Z</time>
      </trkpt>
      <trkpt lat="44.19777" lon="0.8392">
        <ele>101.56</ele>
        <time>2017-08-20T08:32:19Z</time>
      </trkpt>
      <trkpt lat="44.1978" lon="0.83885">
        <ele>100.679</ele>
        <time>2017-08-20T08:32:28Z</time>
      </trkpt>
      <trkpt lat="44.19782" lon="0.83859">
        <ele>102.76</ele>
        <time>2017-08-20T08:32:36Z</time>
      </trkpt>
      <trkpt lat="44.19783" lon="0.83845">
        <ele>101.51</ele>
        <time>2017-08-20T08:32:42Z</time>
      </trkpt>
      <trkpt lat="44.1978" lon="0.83824">
        <ele>97.939</ele>
        <time>2017-08-20T08:32:50Z</time>
      </trkpt>
      <trkpt lat="44.19777" lon="0.83795">
        <ele>94.699</ele>
        <time>2017-08-20T08:32:58Z</time>
      </trkpt>
      <trkpt lat="44.19777" lon="0.83769">
        <ele>95.52</ele>
        <time>2017-08-20T08:33:05Z</time>
      </trkpt>
      <trkpt lat="44.19778" lon="0.83748">
        <ele>96.42</ele>
        <time>2017-08-20T08:33:13Z</time>
      </trkpt>
      <trkpt lat="44.19781" lon="0.83731">
        <ele>97.499</ele>
        <time>2017-08-20T08:33:21Z</time>
      </trkpt>
      <trkpt lat="44.19785" lon="0.83716">
        <ele>94.648</ele>
        <time>2017-08-20T08:33:29Z</time>
      </trkpt>
      <trkpt lat="44.19787" lon="0.83705">
        <ele>95.569</ele>
        <time>2017-08-20T08:33:37Z</time>
      </trkpt>
      <trkpt lat="44.19788" lon="0.8369">
        <ele>98.139</ele>
        <time>2017-08-20T08:33:46Z</time>
      </trkpt>
      <trkpt lat="44.19791" lon="0.83676">
        <ele>97.319</ele>
        <time>2017-08-20T08:33:55Z</time>
      </trkpt>
      <trkpt lat="44.19798" lon="0.83674">
        <ele>95.899</ele>
        <time>2017-08-20T08:34:03Z</time>
      </trkpt>
      <trkpt lat="44.19807" lon="0.83672">
        <ele>95.929</ele>
        <time>2017-08-20T08:34:14Z</time>
      </trkpt>
      <trkpt lat="44.19814" lon="0.8367">
        <ele>96.709</ele>
        <time>2017-08-20T08:34:23Z</time>
      </trkpt>
      <trkpt lat="44.19822" lon="0.83668">
        <ele>99.72</ele>
        <time>2017-08-20T08:34:34Z</time>
      </trkpt>
      <trkpt lat="44.19829" lon="0.83666">
        <ele>100.21</ele>
        <time>2017-08-20T08:34:44Z</time>
      </trkpt>
      <trkpt lat="44.19835" lon="0.83663">
        <ele>100.909</ele>
        <time>2017-08-20T08:34:52Z</time>
      </trkpt>
      <trkpt lat="44.19842" lon="0.8366">
        <ele>101.81</ele>
        <time>2017-08-20T08:35:01Z</time>
      </trkpt>
      <trkpt lat="44.19849" lon="0.83657">
        <ele>103.22</ele>
        <time>2017-08-20T08:35:10Z</time>
      </trkpt>
      <trkpt lat="44.19856" lon="0.83654">
        <ele>104.85</ele>
        <time>2017-08-20T08:35:19Z</time>
      </trkpt>
      <trkpt lat="44.19862" lon="0.83651">
        <ele>106.41</ele>
        <time>2017-08-20T08:35:27Z</time>
      </trkpt>
      <trkpt lat="44.1987" lon="0.83647">
        <ele>108.76</ele>
        <time>2017-08-20T08:35:39Z</time>
      </trkpt>
      <trkpt lat="44.19877" lon="0.83644">
        <ele>110.58</ele>
        <time>2017-08-20T08:35:48Z</time>
      </trkpt>
      <trkpt lat="44.19884" lon="0.83642">
        <ele>113.02</ele>
        <time>2017-08-20T08:35:57Z</time>
      </trkpt>
      <trkpt lat="44.19889" lon="0.83639">
        <ele>115.3</ele>
        <time>2017-08-20T08:36:06Z</time>
      </trkpt>
      <trkpt lat="44.19891" lon="0.83638">
        <ele>115.98</ele>
        <time>2017-08-20T08:36:10Z</time>
      </trkpt>
      <trkpt lat="44.1989" lon="0.83637">
        <ele>118.17</ele>
        <time>2017-08-20T08:36:18Z</time>
      </trkpt>
      <trkpt lat="44.1989" lon="0.83642">
        <ele>131.751</ele>
        <time>2017-08-20T08:40:11Z</time>
      </trkpt>
      <trkpt lat="44.19898" lon="0.8364">
        <ele>132.939</ele>
        <time>2017-08-20T08:40:18Z</time>
      </trkpt>
      <trkpt lat="44.19908" lon="0.83639">
        <ele>134.88</ele>
        <time>2017-08-20T08:40:27Z</time>
      </trkpt>
      <trkpt lat="44.19917" lon="0.83636">
        <ele>138.521</ele>
        <time>2017-08-20T08:40:35Z</time>
      </trkpt>
      <trkpt lat="44.19924" lon="0.83633">
        <ele>139.82</ele>
        <time>2017-08-20T08:40:42Z</time>
      </trkpt>
      <trkpt lat="44.19933" lon="0.83625">
        <ele>139.289</ele>
        <time>2017-08-20T08:40:51Z</time>
      </trkpt>
      <trkpt lat="44.19939" lon="0.83617">
        <ele>140.067</ele>
        <time>2017-08-20T08:40:58Z</time>
      </trkpt>
      <trkpt lat="44.19944" lon="0.83606">
        <ele>137.937</ele>
        <time>2017-08-20T08:41:06Z</time>
      </trkpt>
      <trkpt lat="44.19948" lon="0.83598">
        <ele>138.127</ele>
        <time>2017-08-20T08:41:14Z</time>
      </trkpt>
      <trkpt lat="44.19951" lon="0.83589">
        <ele>134.026</ele>
        <time>2017-08-20T08:41:23Z</time>
      </trkpt>
      <trkpt lat="44.19954" lon="0.83582">
        <ele>131.416</ele>
        <time>2017-08-20T08:41:31Z</time>
      </trkpt>
      <trkpt lat="44.19957" lon="0.83579">
        <ele>135.037</ele>
        <time>2017-08-20T08:41:36Z</time>
      </trkpt>
      <trkpt lat="44.19959" lon="0.83575">
        <ele>134.648</ele>
        <time>2017-08-20T08:41:41Z</time>
      </trkpt>
      <trkpt lat="44.19964" lon="0.83567">
        <ele>136.548</ele>
        <time>2017-08-20T08:41:51Z</time>
      </trkpt>
      <trkpt lat="44.19969" lon="0.83559">
        <ele>136.558</ele>
        <time>2017-08-20T08:42:01Z</time>
      </trkpt>
      <trkpt lat="44.19974" lon="0.83551">
        <ele>139.618</ele>
        <time>2017-08-20T08:42:09Z</time>
      </trkpt>
      <trkpt lat="44.19978" lon="0.83543">
        <ele>139.267</ele>
        <time>2017-08-20T08:42:17Z</time>
      </trkpt>
      <trkpt lat="44.19985" lon="0.83533">
        <ele>139.139</ele>
        <time>2017-08-20T08:42:28Z</time>
      </trkpt>
      <trkpt lat="44.19991" lon="0.83526">
        <ele>141.64</ele>
        <time>2017-08-20T08:42:37Z</time>
      </trkpt>
      <trkpt lat="44.19993" lon="0.83524">
        <ele>142.88</ele>
        <time>2017-08-20T08:42:39Z</time>
      </trkpt>
      <trkpt lat="44.19996" lon="0.83522">
        <ele>145.13</ele>
        <time>2017-08-20T08:42:43Z</time>
      </trkpt>
      <trkpt lat="44.20004" lon="0.83515">
        <ele>147.62</ele>
        <time>2017-08-20T08:42:51Z</time>
      </trkpt>
      <trkpt lat="44.20011" lon="0.83508">
        <ele>148.869</ele>
        <time>2017-08-20T08:43:01Z</time>
      </trkpt>
      <trkpt lat="44.20015" lon="0.83504">
        <ele>149.869</ele>
        <time>2017-08-20T08:43:08Z</time>
      </trkpt>
      <trkpt lat="44.20014" lon="0.83502">
        <ele>147.509</ele>
        <time>2017-08-20T08:44:38Z</time>
      </trkpt>
      <trkpt lat="44.20017" lon="0.835">
        <ele>148.39</ele>
        <time>2017-08-20T08:44:42Z</time>
      </trkpt>
      <trkpt lat="44.20024" lon="0.83492">
        <ele>151.26</ele>
        <time>2017-08-20T08:44:53Z</time>
      </trkpt>
      <trkpt lat="44.20028" lon="0.83487">
        <ele>151.599</ele>
        <time>2017-08-20T08:45:01Z</time>
      </trkpt>
      <trkpt lat="44.20032" lon="0.83484">
        <ele>150.689</ele>
        <time>2017-08-20T08:45:05Z</time>
      </trkpt>
      <trkpt lat="44.20039" lon="0.83478">
        <ele>151.339</ele>
        <time>2017-08-20T08:45:12Z</time>
      </trkpt>
      <trkpt lat="44.20041" lon="0.83475">
        <ele>151.789</ele>
        <time>2017-08-20T08:45:15Z</time>
      </trkpt>
      <trkpt lat="44.20051" lon="0.83466">
        <ele>151.63</ele>
        <time>2017-08-20T08:45:26Z</time>
      </trkpt>
      <trkpt lat="44.20059" lon="0.83458">
        <ele>152.911</ele>
        <time>2017-08-20T08:45:35Z</time>
      </trkpt>
      <trkpt lat="44.20067" lon="0.8345">
        <ele>153.28</ele>
        <time>2017-08-20T08:45:44Z</time>
      </trkpt>
      <trkpt lat="44.20076" lon="0.83443">
        <ele>154.09</ele>
        <time>2017-08-20T08:45:52Z</time>
      </trkpt>
      <trkpt lat="44.20085" lon="0.83439">
        <ele>155.269</ele>
        <time>2017-08-20T08:45:59Z</time>
      </trkpt>
      <trkpt lat="44.20095" lon="0.83435">
        <ele>156.439</ele>
        <time>2017-08-20T08:46:06Z</time>
      </trkpt>
      <trkpt lat="44.20106" lon="0.83427">
        <ele>157.159</ele>
        <time>2017-08-20T08:46:14Z</time>
      </trkpt>
      <trkpt lat="44.20118" lon="0.83422">
        <ele>157.77</ele>
        <time>2017-08-20T08:46:21Z</time>
      </trkpt>
      <trkpt lat="44.20132" lon="0.83416">
        <ele>158.08</ele>
        <time>2017-08-20T08:46:30Z</time>
      </trkpt>
      <trkpt lat="44.20134" lon="0.83413">
        <ele>158.47</ele>
        <time>2017-08-20T08:46:32Z</time>
      </trkpt>
      <trkpt lat="44.20135" lon="0.83405">
        <ele>159.401</ele>
        <time>2017-08-20T08:46:36Z</time>
      </trkpt>
      <trkpt lat="44.20138" lon="0.83388">
        <ele>160.941</ele>
        <time>2017-08-20T08:46:45Z</time>
      </trkpt>
      <trkpt lat="44.20139" lon="0.83384">
        <ele>161.131</ele>
        <time>2017-08-20T08:46:47Z</time>
      </trkpt>
      <trkpt lat="44.20147" lon="0.83376">
        <ele>160.798</ele>
        <time>2017-08-20T08:46:53Z</time>
      </trkpt>
      <trkpt lat="44.20158" lon="0.83376">
        <ele>159.789</ele>
        <time>2017-08-20T08:46:57Z</time>
      </trkpt>
      <trkpt lat="44.20175" lon="0.83376">
        <ele>157.42</ele>
        <time>2017-08-20T08:47:05Z</time>
      </trkpt>
      <trkpt lat="44.20186" lon="0.83378">
        <ele>157.451</ele>
        <time>2017-08-20T08:47:13Z</time>
      </trkpt>
      <trkpt lat="44.20201" lon="0.83381">
        <ele>156.07</ele>
        <time>2017-08-20T08:47:23Z</time>
      </trkpt>
      <trkpt lat="44.20217" lon="0.83382">
        <ele>155.34</ele>
        <time>2017-08-20T08:47:33Z</time>
      </trkpt>
      <trkpt lat="44.20228" lon="0.83383">
        <ele>155.49</ele>
        <time>2017-08-20T08:47:40Z</time>
      </trkpt>
      <trkpt lat="44.2024" lon="0.83385">
        <ele>155.74</ele>
        <time>2017-08-20T08:47:48Z</time>
      </trkpt>
      <trkpt lat="44.20251" lon="0.83387">
        <ele>156.72</ele>
        <time>2017-08-20T08:47:57Z</time>
      </trkpt>
      <trkpt lat="44.20259" lon="0.83388">
        <ele>158.541</ele>
        <time>2017-08-20T08:48:05Z</time>
      </trkpt>
      <trkpt lat="44.20267" lon="0.8339">
        <ele>160.121</ele>
        <time>2017-08-20T08:48:15Z</time>
      </trkpt>
      <trkpt lat="44.20274" lon="0.83392">
        <ele>162.499</ele>
        <time>2017-08-20T08:48:23Z</time>
      </trkpt>
      <trkpt lat="44.2028" lon="0.83394">
        <ele>164.281</ele>
        <time>2017-08-20T08:48:30Z</time>
      </trkpt>
      <trkpt lat="44.20288" lon="0.83391">
        <ele>163.65</ele>
        <time>2017-08-20T08:48:39Z</time>
      </trkpt>
      <trkpt lat="44.20291" lon="0.83381">
        <ele>163.36</ele>
        <time>2017-08-20T08:48:47Z</time>
      </trkpt>
      <trkpt lat="44.20292" lon="0.8338">
        <ele>163.23</ele>
        <time>2017-08-20T08:48:48Z</time>
      </trkpt>
      <trkpt lat="44.20295" lon="0.83375">
        <ele>162.91</ele>
        <time>2017-08-20T08:48:53Z</time>
      </trkpt>
      <trkpt lat="44.20302" lon="0.83368">
        <ele>164.951</ele>
        <time>2017-08-20T08:49:03Z</time>
      </trkpt>
      <trkpt lat="44.20304" lon="0.83366">
        <ele>166.141</ele>
        <time>2017-08-20T08:49:06Z</time>
      </trkpt>
      <trkpt lat="44.20311" lon="0.83365">
        <ele>168.101</ele>
        <time>2017-08-20T08:49:14Z</time>
      </trkpt>
      <trkpt lat="44.20313" lon="0.83365">
        <ele>169.341</ele>
        <time>2017-08-20T08:49:17Z</time>
      </trkpt>
      <trkpt lat="44.2032" lon="0.83362">
        <ele>169.6</ele>
        <time>2017-08-20T08:49:25Z</time>
      </trkpt>
      <trkpt lat="44.20322" lon="0.83359">
        <ele>168.9</ele>
        <time>2017-08-20T08:49:29Z</time>
      </trkpt>
      <trkpt lat="44.2032" lon="0.83362">
        <ele>168.53</ele>
        <time>2017-08-20T08:49:34Z</time>
      </trkpt>
      <trkpt lat="44.20318" lon="0.83361">
        <ele>169.26</ele>
        <time>2017-08-20T08:49:40Z</time>
      </trkpt>
      <trkpt lat="44.20318" lon="0.83361">
        <ele>169.6</ele>
        <time>2017-08-20T08:49:42Z</time>
      </trkpt>
      <trkpt lat="44.2032" lon="0.83363">
        <ele>169.77</ele>
        <time>2017-08-20T08:49:47Z</time>
      </trkpt>
      <trkpt lat="44.20326" lon="0.83359">
        <ele>169.65</ele>
        <time>2017-08-20T08:49:53Z</time>
      </trkpt>
      <trkpt lat="44.20328" lon="0.83351">
        <ele>170.17</ele>
        <time>2017-08-20T08:49:58Z</time>
      </trkpt>
      <trkpt lat="44.2033" lon="0.83339">
        <ele>169.6</ele>
        <time>2017-08-20T08:50:06Z</time>
      </trkpt>
      <trkpt lat="44.20334" lon="0.83323">
        <ele>168.85</ele>
        <time>2017-08-20T08:50:15Z</time>
      </trkpt>
      <trkpt lat="44.20339" lon="0.83315">
        <ele>168.781</ele>
        <time>2017-08-20T08:50:21Z</time>
      </trkpt>
      <trkpt lat="44.20346" lon="0.83318">
        <ele>169.741</ele>
        <time>2017-08-20T08:50:27Z</time>
      </trkpt>
      <trkpt lat="44.20352" lon="0.83322">
        <ele>170.672</ele>
        <time>2017-08-20T08:50:32Z</time>
      </trkpt>
      <trkpt lat="44.2036" lon="0.83326">
        <ele>170.621</ele>
        <time>2017-08-20T08:50:38Z</time>
      </trkpt>
      <trkpt lat="44.20372" lon="0.83332">
        <ele>171.11</ele>
        <time>2017-08-20T08:50:47Z</time>
      </trkpt>
      <trkpt lat="44.20388" lon="0.83337">
        <ele>170.759</ele>
        <time>2017-08-20T08:50:53Z</time>
      </trkpt>
      <trkpt lat="44.20417" lon="0.83337">
        <ele>168.709</ele>
        <time>2017-08-20T08:50:59Z</time>
      </trkpt>
      <trkpt lat="44.20452" lon="0.83338">
        <ele>167.53</ele>
        <time>2017-08-20T08:51:06Z</time>
      </trkpt>
      <trkpt lat="44.20456" lon="0.83338">
        <ele>167.51</ele>
        <time>2017-08-20T08:51:09Z</time>
      </trkpt>
      <trkpt lat="44.20461" lon="0.83339">
        <ele>169.621</ele>
        <time>2017-08-20T08:51:27Z</time>
      </trkpt>
      <trkpt lat="44.20475" lon="0.83346">
        <ele>169.171</ele>
        <time>2017-08-20T08:51:34Z</time>
      </trkpt>
      <trkpt lat="44.20493" lon="0.83356">
        <ele>168.981</ele>
        <time>2017-08-20T08:51:41Z</time>
      </trkpt>
      <trkpt lat="44.20516" lon="0.83366">
        <ele>169.881</ele>
        <time>2017-08-20T08:51:51Z</time>
      </trkpt>
      <trkpt lat="44.20545" lon="0.83371">
        <ele>170.101</ele>
        <time>2017-08-20T08:52:02Z</time>
      </trkpt>
      <trkpt lat="44.20564" lon="0.8337">
        <ele>170.031</ele>
        <time>2017-08-20T08:52:10Z</time>
      </trkpt>
      <trkpt lat="44.20586" lon="0.8337">
        <ele>170.452</ele>
        <time>2017-08-20T08:52:19Z</time>
      </trkpt>
      <trkpt lat="44.20609" lon="0.83369">
        <ele>171.352</ele>
        <time>2017-08-20T08:52:29Z</time>
      </trkpt>
      <trkpt lat="44.20627" lon="0.8337">
        <ele>172.702</ele>
        <time>2017-08-20T08:52:38Z</time>
      </trkpt>
      <trkpt lat="44.20636" lon="0.83379">
        <ele>173.382</ele>
        <time>2017-08-20T08:52:46Z</time>
      </trkpt>
      <trkpt lat="44.20636" lon="0.83379">
        <ele>173.141</ele>
        <time>2017-08-20T08:53:00Z</time>
      </trkpt>
      <trkpt lat="44.20636" lon="0.8338">
        <ele>173.152</ele>
        <time>2017-08-20T08:53:01Z</time>
      </trkpt>
      <trkpt lat="44.2064" lon="0.83375">
        <ele>173.402</ele>
        <time>2017-08-20T08:53:06Z</time>
      </trkpt>
      <trkpt lat="44.20646" lon="0.83367">
        <ele>173.472</ele>
        <time>2017-08-20T08:53:13Z</time>
      </trkpt>
      <trkpt lat="44.20646" lon="0.83367">
        <ele>173.692</ele>
        <time>2017-08-20T08:53:22Z</time>
      </trkpt>
      <trkpt lat="44.20645" lon="0.83368">
        <ele>173.951</ele>
        <time>2017-08-20T08:54:05Z</time>
      </trkpt>
      <trkpt lat="44.20645" lon="0.83368">
        <ele>173.961</ele>
        <time>2017-08-20T08:54:12Z</time>
      </trkpt>
      <trkpt lat="44.20639" lon="0.8338">
        <ele>173.371</ele>
        <time>2017-08-20T08:54:20Z</time>
      </trkpt>
      <trkpt lat="44.20636" lon="0.8339">
        <ele>173.161</ele>
        <time>2017-08-20T08:54:28Z</time>
      </trkpt>
      <trkpt lat="44.20633" lon="0.83403">
        <ele>172.481</ele>
        <time>2017-08-20T08:54:34Z</time>
      </trkpt>
      <trkpt lat="44.20624" lon="0.83425">
        <ele>171.46</ele>
        <time>2017-08-20T08:54:39Z</time>
      </trkpt>
      <trkpt lat="44.20605" lon="0.83463">
        <ele>169.961</ele>
        <time>2017-08-20T08:54:45Z</time>
      </trkpt>
      <trkpt lat="44.20587" lon="0.83519">
        <ele>168.951</ele>
        <time>2017-08-20T08:54:53Z</time>
      </trkpt>
      <trkpt lat="44.20574" lon="0.83573">
        <ele>168.071</ele>
        <time>2017-08-20T08:55:02Z</time>
      </trkpt>
      <trkpt lat="44.2057" lon="0.83589">
        <ele>167.18</ele>
        <time>2017-08-20T08:55:05Z</time>
      </trkpt>
      <trkpt lat="44.20557" lon="0.83622">
        <ele>166.139</ele>
        <time>2017-08-20T08:55:11Z</time>
      </trkpt>
      <trkpt lat="44.2054" lon="0.83679">
        <ele>165.181</ele>
        <time>2017-08-20T08:55:20Z</time>
      </trkpt>
      <trkpt lat="44.20526" lon="0.8372">
        <ele>165.332</ele>
        <time>2017-08-20T08:55:27Z</time>
      </trkpt>
      <trkpt lat="44.20513" lon="0.83761">
        <ele>165.481</ele>
        <time>2017-08-20T08:55:35Z</time>
      </trkpt>
      <trkpt lat="44.20503" lon="0.838">
        <ele>165.572</ele>
        <time>2017-08-20T08:55:44Z</time>
      </trkpt>
      <trkpt lat="44.20504" lon="0.83827">
        <ele>165.901</ele>
        <time>2017-08-20T08:55:52Z</time>
      </trkpt>
      <trkpt lat="44.20512" lon="0.83848">
        <ele>165.551</ele>
        <time>2017-08-20T08:55:59Z</time>
      </trkpt>
      <trkpt lat="44.20522" lon="0.83857">
        <ele>165.101</ele>
        <time>2017-08-20T08:56:04Z</time>
      </trkpt>
      <trkpt lat="44.20533" lon="0.83867">
        <ele>164.66</ele>
        <time>2017-08-20T08:56:09Z</time>
      </trkpt>
      <trkpt lat="44.20544" lon="0.83875">
        <ele>163.853</ele>
        <time>2017-08-20T08:56:14Z</time>
      </trkpt>
      <trkpt lat="44.20561" lon="0.8388">
        <ele>163.402</ele>
        <time>2017-08-20T08:56:23Z</time>
      </trkpt>
      <trkpt lat="44.20577" lon="0.83879">
        <ele>164.092</ele>
        <time>2017-08-20T08:56:33Z</time>
      </trkpt>
      <trkpt lat="44.20585" lon="0.83877">
        <ele>164.732</ele>
        <time>2017-08-20T08:56:42Z</time>
      </trkpt>
      <trkpt lat="44.20593" lon="0.83876">
        <ele>164.922</ele>
        <time>2017-08-20T08:56:49Z</time>
      </trkpt>
      <trkpt lat="44.20609" lon="0.83873">
        <ele>164.912</ele>
        <time>2017-08-20T08:56:58Z</time>
      </trkpt>
      <trkpt lat="44.20624" lon="0.8387">
        <ele>164.592</ele>
        <time>2017-08-20T08:57:05Z</time>
      </trkpt>
      <trkpt lat="44.20649" lon="0.83863">
        <ele>164.782</ele>
        <time>2017-08-20T08:57:14Z</time>
      </trkpt>
      <trkpt lat="44.20679" lon="0.83852">
        <ele>164.233</ele>
        <time>2017-08-20T08:57:24Z</time>
      </trkpt>
      <trkpt lat="44.207" lon="0.8385">
        <ele>164.543</ele>
        <time>2017-08-20T08:57:32Z</time>
      </trkpt>
      <trkpt lat="44.20714" lon="0.83846">
        <ele>165.083</ele>
        <time>2017-08-20T08:57:37Z</time>
      </trkpt>
      <trkpt lat="44.20737" lon="0.83831">
        <ele>166.553</ele>
        <time>2017-08-20T08:57:47Z</time>
      </trkpt>
      <trkpt lat="44.20769" lon="0.83821">
        <ele>168.713</ele>
        <time>2017-08-20T08:58:00Z</time>
      </trkpt>
      <trkpt lat="44.20791" lon="0.83826">
        <ele>169.843</ele>
        <time>2017-08-20T08:58:10Z</time>
      </trkpt>
      <trkpt lat="44.20814" lon="0.83836">
        <ele>169.932</ele>
        <time>2017-08-20T08:58:20Z</time>
      </trkpt>
      <trkpt lat="44.20838" lon="0.8385">
        <ele>168.902</ele>
        <time>2017-08-20T08:58:29Z</time>
      </trkpt>
      <trkpt lat="44.20863" lon="0.83862">
        <ele>167.242</ele>
        <time>2017-08-20T08:58:35Z</time>
      </trkpt>
      <trkpt lat="44.20906" lon="0.8388">
        <ele>165.152</ele>
        <time>2017-08-20T08:58:43Z</time>
      </trkpt>
      <trkpt lat="44.20953" lon="0.83892">
        <ele>164.403</ele>
        <time>2017-08-20T08:58:52Z</time>
      </trkpt>
      <trkpt lat="44.20981" lon="0.83898">
        <ele>164.543</ele>
        <time>2017-08-20T08:58:59Z</time>
      </trkpt>
      <trkpt lat="44.21001" lon="0.83906">
        <ele>164.793</ele>
        <time>2017-08-20T08:59:06Z</time>
      </trkpt>
      <trkpt lat="44.21035" lon="0.83923">
        <ele>165.063</ele>
        <time>2017-08-20T08:59:17Z</time>
      </trkpt>
      <trkpt lat="44.21072" lon="0.83939">
        <ele>166.415</ele>
        <time>2017-08-20T08:59:29Z</time>
      </trkpt>
      <trkpt lat="44.21103" lon="0.83946">
        <ele>168.035</ele>
        <time>2017-08-20T08:59:40Z</time>
      </trkpt>
      <trkpt lat="44.21129" lon="0.83949">
        <ele>169.105</ele>
        <time>2017-08-20T08:59:50Z</time>
      </trkpt>
      <trkpt lat="44.21153" lon="0.83954">
        <ele>169.945</ele>
        <time>2017-08-20T09:00:00Z</time>
      </trkpt>
      <trkpt lat="44.21169" lon="0.83957">
        <ele>170.155</ele>
        <time>2017-08-20T09:00:08Z</time>
      </trkpt>
      <trkpt lat="44.21182" lon="0.8396">
        <ele>169.884</ele>
        <time>2017-08-20T09:00:18Z</time>
      </trkpt>
      <trkpt lat="44.21197" lon="0.83962">
        <ele>169.115</ele>
        <time>2017-08-20T09:00:26Z</time>
      </trkpt>
      <trkpt lat="44.21218" lon="0.83966">
        <ele>168.285</ele>
        <time>2017-08-20T09:00:33Z</time>
      </trkpt>
      <trkpt lat="44.21243" lon="0.8397">
        <ele>166.964</ele>
        <time>2017-08-20T09:00:39Z</time>
      </trkpt>
      <trkpt lat="44.21284" lon="0.83978">
        <ele>165.254</ele>
        <time>2017-08-20T09:00:46Z</time>
      </trkpt>
      <trkpt lat="44.2133" lon="0.83993">
        <ele>163.484</ele>
        <time>2017-08-20T09:00:53Z</time>
      </trkpt>
      <trkpt lat="44.21371" lon="0.84019">
        <ele>163.025</ele>
        <time>2017-08-20T09:01:00Z</time>
      </trkpt>
      <trkpt lat="44.21399" lon="0.84036">
        <ele>163.326</ele>
        <time>2017-08-20T09:01:06Z</time>
      </trkpt>
      <trkpt lat="44.21431" lon="0.84054">
        <ele>164.736</ele>
        <time>2017-08-20T09:01:15Z</time>
      </trkpt>
      <trkpt lat="44.21454" lon="0.84062">
        <ele>166.747</ele>
        <time>2017-08-20T09:01:23Z</time>
      </trkpt>
      <trkpt lat="44.21476" lon="0.84064">
        <ele>169.393</ele>
        <time>2017-08-20T09:01:33Z</time>
      </trkpt>
      <trkpt lat="44.21499" lon="0.84062">
        <ele>171.257</ele>
        <time>2017-08-20T09:01:44Z</time>
      </trkpt>
      <trkpt lat="44.21524" lon="0.84057">
        <ele>172.617</ele>
        <time>2017-08-20T09:01:55Z</time>
      </trkpt>
      <trkpt lat="44.21551" lon="0.84057">
        <ele>174.117</ele>
        <time>2017-08-20T09:02:07Z</time>
      </trkpt>
      <trkpt lat="44.21565" lon="0.84066">
        <ele>174.107</ele>
        <time>2017-08-20T09:02:15Z</time>
      </trkpt>
      <trkpt lat="44.21576" lon="0.84069">
        <ele>174.237</ele>
        <time>2017-08-20T09:02:22Z</time>
      </trkpt>
      <trkpt lat="44.21584" lon="0.84076">
        <ele>174.638</ele>
        <time>2017-08-20T09:02:28Z</time>
      </trkpt>
      <trkpt lat="44.21592" lon="0.84085">
        <ele>175.058</ele>
        <time>2017-08-20T09:02:34Z</time>
      </trkpt>
      <trkpt lat="44.21608" lon="0.84102">
        <ele>175.535</ele>
        <time>2017-08-20T09:02:45Z</time>
      </trkpt>
      <trkpt lat="44.21617" lon="0.84112">
        <ele>175.818</ele>
        <time>2017-08-20T09:02:52Z</time>
      </trkpt>
      <trkpt lat="44.2163" lon="0.84125">
        <ele>176.228</ele>
        <time>2017-08-20T09:03:01Z</time>
      </trkpt>
      <trkpt lat="44.21645" lon="0.84141">
        <ele>176.787</ele>
        <time>2017-08-20T09:03:12Z</time>
      </trkpt>
      <trkpt lat="44.21656" lon="0.84151">
        <ele>177.268</ele>
        <time>2017-08-20T09:03:19Z</time>
      </trkpt>
      <trkpt lat="44.2167" lon="0.84157">
        <ele>177.908</ele>
        <time>2017-08-20T09:03:27Z</time>
      </trkpt>
      <trkpt lat="44.21687" lon="0.84159">
        <ele>178.918</ele>
        <time>2017-08-20T09:03:37Z</time>
      </trkpt>
      <trkpt lat="44.21705" lon="0.84161">
        <ele>179.158</ele>
        <time>2017-08-20T09:03:46Z</time>
      </trkpt>
      <trkpt lat="44.21723" lon="0.8416">
        <ele>177.256</ele>
        <time>2017-08-20T09:03:52Z</time>
      </trkpt>
      <trkpt lat="44.21751" lon="0.84154">
        <ele>174.896</ele>
        <time>2017-08-20T09:03:59Z</time>
      </trkpt>
      <trkpt lat="44.21795" lon="0.84146">
        <ele>172.617</ele>
        <time>2017-08-20T09:04:09Z</time>
      </trkpt>
      <trkpt lat="44.21821" lon="0.84141">
        <ele>171.837</ele>
        <time>2017-08-20T09:04:16Z</time>
      </trkpt>
      <trkpt lat="44.21845" lon="0.84142">
        <ele>171.948</ele>
        <time>2017-08-20T09:04:24Z</time>
      </trkpt>
      <trkpt lat="44.21859" lon="0.84148">
        <ele>171.848</ele>
        <time>2017-08-20T09:04:31Z</time>
      </trkpt>
      <trkpt lat="44.21874" lon="0.84151">
        <ele>171.489</ele>
        <time>2017-08-20T09:04:38Z</time>
      </trkpt>
      <trkpt lat="44.21885" lon="0.84161">
        <ele>171.759</ele>
        <time>2017-08-20T09:04:45Z</time>
      </trkpt>
      <trkpt lat="44.21899" lon="0.84176">
        <ele>171.078</ele>
        <time>2017-08-20T09:04:54Z</time>
      </trkpt>
      <trkpt lat="44.2191" lon="0.8419">
        <ele>170.198</ele>
        <time>2017-08-20T09:05:04Z</time>
      </trkpt>
      <trkpt lat="44.21918" lon="0.84202">
        <ele>168.646</ele>
        <time>2017-08-20T09:05:08Z</time>
      </trkpt>
      <trkpt lat="44.2193" lon="0.84221">
        <ele>165.97</ele>
        <time>2017-08-20T09:05:11Z</time>
      </trkpt>
      <trkpt lat="44.21957" lon="0.84262">
        <ele>161.81</ele>
        <time>2017-08-20T09:05:16Z</time>
      </trkpt>
      <trkpt lat="44.2201" lon="0.84342">
        <ele>157.447</ele>
        <time>2017-08-20T09:05:25Z</time>
      </trkpt>
      <trkpt lat="44.22021" lon="0.84358">
        <ele>157.169</ele>
        <time>2017-08-20T09:05:28Z</time>
      </trkpt>
      <trkpt lat="44.22025" lon="0.84364">
        <ele>157.25</ele>
        <time>2017-08-20T09:05:33Z</time>
      </trkpt>
      <trkpt lat="44.22025" lon="0.84366">
        <ele>157.33</ele>
        <time>2017-08-20T09:05:34Z</time>
      </trkpt>
      <trkpt lat="44.2202" lon="0.84376">
        <ele>158.961</ele>
        <time>2017-08-20T09:05:40Z</time>
      </trkpt>
      <trkpt lat="44.22019" lon="0.84377">
        <ele>159.301</ele>
        <time>2017-08-20T09:05:41Z</time>
      </trkpt>
      <trkpt lat="44.2201" lon="0.84392">
        <ele>161.37</ele>
        <time>2017-08-20T09:05:50Z</time>
      </trkpt>
      <trkpt lat="44.22003" lon="0.84414">
        <ele>162.43</ele>
        <time>2017-08-20T09:06:02Z</time>
      </trkpt>
      <trkpt lat="44.22004" lon="0.84418">
        <ele>162.53</ele>
        <time>2017-08-20T09:06:05Z</time>
      </trkpt>
      <trkpt lat="44.22" lon="0.84428">
        <ele>162.5</ele>
        <time>2017-08-20T09:06:12Z</time>
      </trkpt>
      <trkpt lat="44.21997" lon="0.84443">
        <ele>162.84</ele>
        <time>2017-08-20T09:06:19Z</time>
      </trkpt>
      <trkpt lat="44.21991" lon="0.84467">
        <ele>162.489</ele>
        <time>2017-08-20T09:06:26Z</time>
      </trkpt>
      <trkpt lat="44.21984" lon="0.84503">
        <ele>161.689</ele>
        <time>2017-08-20T09:06:33Z</time>
      </trkpt>
      <trkpt lat="44.21981" lon="0.84544">
        <ele>161.82</ele>
        <time>2017-08-20T09:06:41Z</time>
      </trkpt>
      <trkpt lat="44.21981" lon="0.84553">
        <ele>161.91</ele>
        <time>2017-08-20T09:06:43Z</time>
      </trkpt>
      <trkpt lat="44.21991" lon="0.84559">
        <ele>161.75</ele>
        <time>2017-08-20T09:06:47Z</time>
      </trkpt>
      <trkpt lat="44.21998" lon="0.84557">
        <ele>161.9</ele>
        <time>2017-08-20T09:06:50Z</time>
      </trkpt>
      <trkpt lat="44.22" lon="0.84552">
        <ele>162.24</ele>
        <time>2017-08-20T09:06:53Z</time>
      </trkpt>
      <trkpt lat="44.22" lon="0.84551">
        <ele>162.634</ele>
        <time>2017-08-20T09:06:55Z</time>
      </trkpt>
    </trkseg>
  </trk>
</gpx>